sensor_id;sensor_type;location;lat;lon;timestamp;pressure;altitude;pressure_sealevel;temperature;humidity
73267;BME280;61495;53.400;7.608;2022-09-13T00:01:18;100923.03;;;17.81;74.60
73267;BME280;61495;53.400;7.608;2022-09-13T00:03:44;100877.31;;;17.46;74.87
73267;BME280;61495;53.400;7.608;2022-09-13T00:06:15;100919.44;;;17.75;73.82
73267;BME280;61495;53.400;7.608;2022-09-13T00:08:41;100920.00;;;17.77;72.80
73267;BME280;61495;53.400;7.608;2022-09-13T00:11:16;100874.59;;;17.46;73.07
73267;BME280;61495;53.400;7.608;2022-09-13T00:13:42;100903.84;;;17.65;73.83
73267;BME280;61495;53.400;7.608;2022-09-13T00:16:14;100920.25;;;17.75;73.04
73267;BME280;61495;53.400;7.608;2022-09-13T00:18:40;100895.41;;;17.62;73.19
73267;BME280;61495;53.400;7.608;2022-09-13T00:21:11;100921.50;;;17.68;77.02
73267;BME280;61495;53.400;7.608;2022-09-13T00:23:38;100920.44;;;17.69;74.35
73267;BME280;61495;53.400;7.608;2022-09-13T00:26:06;100914.94;;;17.64;74.88
73267;BME280;61495;53.400;7.608;2022-09-13T00:28:32;100849.91;;;17.26;76.25
73267;BME280;61495;53.400;7.608;2022-09-13T00:31:00;100910.09;;;17.66;75.03
73267;BME280;61495;53.400;7.608;2022-09-13T00:33:25;100883.34;;;17.53;75.63
73267;BME280;61495;53.400;7.608;2022-09-13T00:35:51;100893.19;;;17.59;76.66
73267;BME280;61495;53.400;7.608;2022-09-13T00:38:16;100896.22;;;17.62;76.73
73267;BME280;61495;53.400;7.608;2022-09-13T00:40:41;100893.69;;;17.56;76.39
73267;BME280;61495;53.400;7.608;2022-09-13T00:43:18;100871.88;;;17.46;76.96
73267;BME280;61495;53.400;7.608;2022-09-13T00:45:44;100894.34;;;17.63;77.52
73267;BME280;61495;53.400;7.608;2022-09-13T00:48:17;100884.00;;;17.60;76.37
73267;BME280;61495;53.400;7.608;2022-09-13T00:50:48;100868.25;;;17.40;77.50
73267;BME280;61495;53.400;7.608;2022-09-13T00:53:20;100888.09;;;17.62;75.65
73267;BME280;61495;53.400;7.608;2022-09-13T00:55:53;100880.47;;;17.59;77.52
73267;BME280;61495;53.400;7.608;2022-09-13T00:58:32;100853.16;;;17.44;77.97
73267;BME280;61495;53.400;7.608;2022-09-13T01:00:59;100848.81;;;17.43;76.09
73267;BME280;61495;53.400;7.608;2022-09-13T01:03:30;100875.28;;;17.58;76.52
73267;BME280;61495;53.400;7.608;2022-09-13T01:06:03;100836.84;;;17.39;78.71
73267;BME280;61495;53.400;7.608;2022-09-13T01:08:32;100854.16;;;17.55;76.92
73267;BME280;61495;53.400;7.608;2022-09-13T01:10:59;100819.72;;;17.34;77.08
73267;BME280;61495;53.400;7.608;2022-09-13T01:13:32;100863.41;;;17.59;77.66
73267;BME280;61495;53.400;7.608;2022-09-13T01:16:00;100852.47;;;17.54;76.75
73267;BME280;61495;53.400;7.608;2022-09-13T01:18:25;100860.03;;;17.52;78.32
73267;BME280;61495;53.400;7.608;2022-09-13T01:21:14;100852.97;;;17.51;80.88
73267;BME280;61495;53.400;7.608;2022-09-13T01:27:09;100845.41;;;17.53;79.72
73267;BME280;61495;53.400;7.608;2022-09-13T01:32:56;100830.25;;;17.52;79.91
73267;BME280;61495;53.400;7.608;2022-09-13T01:43:50;100825.06;;;17.50;79.16
73267;BME280;61495;53.400;7.608;2022-09-13T01:46:25;100804.91;;;17.41;80.53
73267;BME280;61495;53.400;7.608;2022-09-13T01:51:58;100784.50;;;17.34;79.36
73267;BME280;61495;53.400;7.608;2022-09-13T01:57:15;100817.19;;;17.49;80.04
73267;BME280;61495;53.400;7.608;2022-09-13T02:00:03;100810.63;;;17.45;81.64
73267;BME280;61495;53.400;7.608;2022-09-13T02:05:10;100797.03;;;17.40;80.56
73267;BME280;61495;53.400;7.608;2022-09-13T02:07:40;100776.56;;;17.27;78.58
73267;BME280;61495;53.400;7.608;2022-09-13T02:10:46;100807.06;;;17.39;81.85
73267;BME280;61495;53.400;7.608;2022-09-13T02:13:16;100810.13;;;17.48;80.41
73267;BME280;61495;53.400;7.608;2022-09-13T02:15:48;100806.38;;;17.49;80.60
73267;BME280;61495;53.400;7.608;2022-09-13T02:18:32;100793.88;;;17.48;81.35
73267;BME280;61495;53.400;7.608;2022-09-13T02:21:15;100783.41;;;17.35;80.42
73267;BME280;61495;53.400;7.608;2022-09-13T02:23:47;100797.66;;;17.47;79.49
73267;BME280;61495;53.400;7.608;2022-09-13T02:26:14;100791.41;;;17.46;79.44
73267;BME280;61495;53.400;7.608;2022-09-13T02:28:44;100776.66;;;17.37;80.86
73267;BME280;61495;53.400;7.608;2022-09-13T02:31:14;100793.56;;;17.44;82.09
73267;BME280;61495;53.400;7.608;2022-09-13T02:34:08;100794.38;;;17.45;80.94
73267;BME280;61495;53.400;7.608;2022-09-13T02:36:38;100791.63;;;17.40;81.08
73267;BME280;61495;53.400;7.608;2022-09-13T02:39:10;100786.75;;;17.42;80.53
73267;BME280;61495;53.400;7.608;2022-09-13T02:42:09;100797.31;;;17.43;78.86
73267;BME280;61495;53.400;7.608;2022-09-13T02:44:44;100806.38;;;17.49;81.16
73267;BME280;61495;53.400;7.608;2022-09-13T02:47:15;100797.66;;;17.47;81.33
73267;BME280;61495;53.400;7.608;2022-09-13T02:49:59;100787.81;;;17.41;81.31
73267;BME280;61495;53.400;7.608;2022-09-13T02:55:07;100762.88;;;17.17;79.43
73267;BME280;61495;53.400;7.608;2022-09-13T02:57:39;100802.25;;;17.46;82.59
73267;BME280;61495;53.400;7.608;2022-09-13T03:00:07;100799.28;;;17.48;82.39
73267;BME280;61495;53.400;7.608;2022-09-13T03:02:33;100756.22;;;17.25;81.89
73267;BME280;61495;53.400;7.608;2022-09-13T03:05:00;100792.00;;;17.48;79.81
73267;BME280;61495;53.400;7.608;2022-09-13T03:07:26;100784.56;;;17.39;80.48
73267;BME280;61495;53.400;7.608;2022-09-13T03:09:58;100793.19;;;17.36;82.80
73267;BME280;61495;53.400;7.608;2022-09-13T03:13:02;100809.63;;;17.51;81.88
73267;BME280;61495;53.400;7.608;2022-09-13T03:24:01;100807.47;;;17.53;81.28
73267;BME280;61495;53.400;7.608;2022-09-13T03:26:31;100820.53;;;17.56;79.82
73267;BME280;61495;53.400;7.608;2022-09-13T03:31:56;100810.25;;;17.58;80.95
73267;BME280;61495;53.400;7.608;2022-09-13T03:37:28;100821.94;;;17.58;80.57
73267;BME280;61495;53.400;7.608;2022-09-13T03:40:09;100810.25;;;17.58;79.62
73267;BME280;61495;53.400;7.608;2022-09-13T03:42:43;100797.31;;;17.43;80.63
73267;BME280;61495;53.400;7.608;2022-09-13T03:45:13;100820.59;;;17.61;80.25
73267;BME280;61495;53.400;7.608;2022-09-13T03:47:45;100740.63;;;17.10;78.88
73267;BME280;61495;53.400;7.608;2022-09-13T03:50:18;100750.44;;;17.16;79.87
73267;BME280;61495;53.400;7.608;2022-09-13T03:52:47;100800.16;;;17.53;80.08
73267;BME280;61495;53.400;7.608;2022-09-13T03:55:19;100765.41;;;17.23;80.38
73267;BME280;61495;53.400;7.608;2022-09-13T03:57:44;100816.00;;;17.61;79.03
73267;BME280;61495;53.400;7.608;2022-09-13T04:00:14;100730.03;;;17.08;78.98
73267;BME280;61495;53.400;7.608;2022-09-13T04:02:42;100820.59;;;17.61;80.00
73267;BME280;61495;53.400;7.608;2022-09-13T04:05:09;100739.22;;;17.07;79.04
73267;BME280;61495;53.400;7.608;2022-09-13T04:07:35;100737.09;;;17.09;78.75
73267;BME280;61495;53.400;7.608;2022-09-13T04:10:00;100828.44;;;17.57;79.32
73267;BME280;61495;53.400;7.608;2022-09-13T04:12:29;100770.59;;;17.25;80.70
73267;BME280;61495;53.400;7.608;2022-09-13T04:14:55;100765.59;;;17.17;80.19
73267;BME280;61495;53.400;7.608;2022-09-13T04:17:21;100816.69;;;17.52;80.05
73267;BME280;61495;53.400;7.608;2022-09-13T04:19:46;100791.03;;;17.38;79.10
73267;BME280;61495;53.400;7.608;2022-09-13T04:22:14;100782.91;;;17.38;79.61
73267;BME280;61495;53.400;7.608;2022-09-13T04:24:40;100823.03;;;17.57;78.76
73267;BME280;61495;53.400;7.608;2022-09-13T04:27:07;100831.38;;;17.56;78.52
73267;BME280;61495;53.400;7.608;2022-09-13T04:29:32;100828.69;;;17.56;80.63
73267;BME280;61495;53.400;7.608;2022-09-13T04:31:58;100806.03;;;17.45;78.79
73267;BME280;61495;53.400;7.608;2022-09-13T04:34:23;100794.84;;;17.37;78.64
73267;BME280;61495;53.400;7.608;2022-09-13T04:36:50;100818.09;;;17.54;78.79
73267;BME280;61495;53.400;7.608;2022-09-13T04:39:17;100808.47;;;17.47;78.53
73267;BME280;61495;53.400;7.608;2022-09-13T04:41:43;100744.63;;;17.07;78.69
73267;BME280;61495;53.400;7.608;2022-09-13T04:44:16;100818.31;;;17.53;80.65
73267;BME280;61495;53.400;7.608;2022-09-13T04:46:44;100768.88;;;17.19;78.97
73267;BME280;61495;53.400;7.608;2022-09-13T04:49:12;100821.03;;;17.53;79.17
73267;BME280;61495;53.400;7.608;2022-09-13T04:51:38;100822.13;;;17.52;79.02
73267;BME280;61495;53.400;7.608;2022-09-13T04:54:04;100815.22;;;17.44;79.47
73267;BME280;61495;53.400;7.608;2022-09-13T04:56:30;100823.69;;;17.48;78.61
73267;BME280;61495;53.400;7.608;2022-09-13T04:58:55;100821.47;;;17.45;79.04
73267;BME280;61495;53.400;7.608;2022-09-13T05:01:22;100816.06;;;17.45;78.59
73267;BME280;61495;53.400;7.608;2022-09-13T05:03:50;100822.63;;;17.49;79.71
73267;BME280;61495;53.400;7.608;2022-09-13T05:06:16;100825.56;;;17.47;79.42
73267;BME280;61495;53.400;7.608;2022-09-13T05:08:50;100836.41;;;17.47;79.09
73267;BME280;61495;53.400;7.608;2022-09-13T05:11:17;100807.56;;;17.36;79.13
73267;BME280;61495;53.400;7.608;2022-09-13T05:13:42;100824.13;;;17.40;78.76
73267;BME280;61495;53.400;7.608;2022-09-13T05:16:08;100790.22;;;17.15;79.25
73267;BME280;61495;53.400;7.608;2022-09-13T05:18:35;100798.84;;;17.12;79.22
73267;BME280;61495;53.400;7.608;2022-09-13T05:21:02;100839.38;;;17.46;78.68
73267;BME280;61495;53.400;7.608;2022-09-13T05:23:29;100840.44;;;17.45;79.54
73267;BME280;61495;53.400;7.608;2022-09-13T05:25:57;100849.88;;;17.42;78.66
73267;BME280;61495;53.400;7.608;2022-09-13T05:28:23;100852.34;;;17.44;78.55
73267;BME280;61495;53.400;7.608;2022-09-13T05:31:12;100843.38;;;17.43;80.78
73267;BME280;61495;53.400;7.608;2022-09-13T05:33:39;100836.84;;;17.39;80.07
73267;BME280;61495;53.400;7.608;2022-09-13T05:36:05;100851.28;;;17.45;79.70
73267;BME280;61495;53.400;7.608;2022-09-13T05:38:30;100855.63;;;17.46;79.18
73267;BME280;61495;53.400;7.608;2022-09-13T05:40:58;100813.50;;;17.16;79.52
73267;BME280;61495;53.400;7.608;2022-09-13T05:43:26;100812.13;;;17.14;79.42
73267;BME280;61495;53.400;7.608;2022-09-13T05:46:15;100855.63;;;17.46;79.74
73267;BME280;61495;53.400;7.608;2022-09-13T05:48:41;100839.69;;;17.28;79.19
73267;BME280;61495;53.400;7.608;2022-09-13T05:51:09;100854.47;;;17.42;78.79
73267;BME280;61495;53.400;7.608;2022-09-13T05:53:40;100856.00;;;17.33;79.85
73267;BME280;61495;53.400;7.608;2022-09-13T05:56:13;100785.66;;;16.99;80.50
73267;BME280;61495;53.400;7.608;2022-09-13T05:58:40;100866.47;;;17.46;80.72
73267;BME280;61495;53.400;7.608;2022-09-13T06:01:07;100869.41;;;17.44;81.17
73267;BME280;61495;53.400;7.608;2022-09-13T06:03:33;100818.88;;;17.11;80.96
73267;BME280;61495;53.400;7.608;2022-09-13T06:06:02;100768.41;;;16.84;79.42
73267;BME280;61495;53.400;7.608;2022-09-13T06:08:30;100867.03;;;17.48;80.44
73267;BME280;61495;53.400;7.608;2022-09-13T06:11:05;100871.38;;;17.49;80.81
73267;BME280;61495;53.400;7.608;2022-09-13T06:13:31;100816.81;;;17.18;81.58
73267;BME280;61495;53.400;7.608;2022-09-13T06:15:59;100782.41;;;16.97;80.41
73267;BME280;61495;53.400;7.608;2022-09-13T06:18:26;100850.72;;;17.43;81.39
73267;BME280;61495;53.400;7.608;2022-09-13T06:20:59;100861.34;;;17.49;80.20
73267;BME280;61495;53.400;7.608;2022-09-13T06:23:28;100852.97;;;17.51;79.65
73267;BME280;61495;53.400;7.608;2022-09-13T06:26:10;100862.00;;;17.56;80.61
73267;BME280;61495;53.400;7.608;2022-09-13T06:28:36;100852.59;;;17.42;80.39
73267;BME280;61495;53.400;7.608;2022-09-13T06:31:07;100826.75;;;17.35;81.21
73267;BME280;61495;53.400;7.608;2022-09-13T06:33:34;100863.72;;;17.62;81.09
73267;BME280;61495;53.400;7.608;2022-09-13T06:36:08;100832.63;;;17.48;81.75
73267;BME280;61495;53.400;7.608;2022-09-13T06:38:34;100859.16;;;17.68;81.49
73267;BME280;61495;53.400;7.608;2022-09-13T06:41:05;100793.63;;;17.28;81.88
73267;BME280;61495;53.400;7.608;2022-09-13T06:43:32;100861.13;;;17.72;80.84
73267;BME280;61495;53.400;7.608;2022-09-13T06:46:12;100869.88;;;17.80;81.82
73267;BME280;61495;53.400;7.608;2022-09-13T06:48:40;100870.97;;;17.79;81.46
73267;BME280;61495;53.400;7.608;2022-09-13T06:51:09;100858.97;;;17.74;80.90
73267;BME280;61495;53.400;7.608;2022-09-13T06:53:36;100874.28;;;17.86;81.18
73267;BME280;61495;53.400;7.608;2022-09-13T06:56:04;100870.16;;;17.78;80.71
73267;BME280;61495;53.400;7.608;2022-09-13T06:58:31;100858.16;;;17.74;81.08
73267;BME280;61495;53.400;7.608;2022-09-13T07:01:16;100878.44;;;17.93;80.74
73267;BME280;61495;53.400;7.608;2022-09-13T07:03:44;100887.16;;;17.95;80.90
73267;BME280;61495;53.400;7.608;2022-09-13T07:06:17;100884.47;;;18.00;80.52
73267;BME280;61495;53.400;7.608;2022-09-13T07:08:44;100811.78;;;17.49;79.38
73267;BME280;61495;53.400;7.608;2022-09-13T07:11:14;100801.59;;;17.56;80.02
73267;BME280;61495;53.400;7.608;2022-09-13T07:13:40;100828.31;;;17.69;80.46
73267;BME280;61495;53.400;7.608;2022-09-13T07:16:08;100886.28;;;18.16;80.28
73267;BME280;61495;53.400;7.608;2022-09-13T07:18:35;100835.50;;;17.85;80.12
73267;BME280;61495;53.400;7.608;2022-09-13T07:21:05;100893.81;;;18.36;79.50
73267;BME280;61495;53.400;7.608;2022-09-13T07:23:33;100884.28;;;18.33;80.22
73267;BME280;61495;53.400;7.608;2022-09-13T07:25:59;100906.38;;;18.47;79.45
73267;BME280;61495;53.400;7.608;2022-09-13T07:28:38;100902.44;;;18.55;79.79
73267;BME280;61495;53.400;7.608;2022-09-13T07:31:09;100871.94;;;18.48;78.47
73267;BME280;61495;53.400;7.608;2022-09-13T07:33:38;100857.53;;;18.47;77.60
73267;BME280;61495;53.400;7.608;2022-09-13T07:36:04;100901.03;;;18.84;77.07
73267;BME280;61495;53.400;7.608;2022-09-13T07:38:35;100855.31;;;18.71;77.24
73267;BME280;61495;53.400;7.608;2022-09-13T07:41:01;100826.75;;;18.58;76.53
73267;BME280;61495;53.400;7.608;2022-09-13T07:43:31;100812.91;;;18.60;76.31
73267;BME280;61495;53.400;7.608;2022-09-13T07:46:01;100822.28;;;18.79;76.35
73267;BME280;61495;53.400;7.608;2022-09-13T07:48:30;100908.53;;;19.46;75.67
73267;BME280;61495;53.400;7.608;2022-09-13T07:51:00;100829.00;;;19.13;75.28
73267;BME280;61495;53.400;7.608;2022-09-13T07:53:27;100903.25;;;19.76;75.04
73267;BME280;61495;53.400;7.608;2022-09-13T07:55:58;100902.78;;;19.89;74.99
73267;BME280;61495;53.400;7.608;2022-09-13T07:58:24;100907.69;;;19.97;74.95
73267;BME280;61495;53.400;7.608;2022-09-13T08:00:50;100901.19;;;20.03;73.93
73267;BME280;61495;53.400;7.608;2022-09-13T08:03:15;100913.19;;;20.22;73.43
73267;BME280;61495;53.400;7.608;2022-09-13T08:05:41;100917.63;;;20.33;71.68
73267;BME280;61495;53.400;7.608;2022-09-13T08:08:06;100914.34;;;20.36;72.53
73267;BME280;61495;53.400;7.608;2022-09-13T08:10:33;100911.63;;;20.41;71.53
73267;BME280;61495;53.400;7.608;2022-09-13T08:12:58;100925.81;;;20.74;71.78
73267;BME280;61495;53.400;7.608;2022-09-13T08:15:24;100927.72;;;20.73;70.40
73267;BME280;61495;53.400;7.608;2022-09-13T08:17:50;100934.00;;;20.74;69.14
73267;BME280;61495;53.400;7.608;2022-09-13T08:20:15;100941.63;;;20.67;66.22
73267;BME280;61495;53.400;7.608;2022-09-13T08:22:40;100921.47;;;20.68;66.86
73267;BME280;61495;53.400;7.608;2022-09-13T08:25:06;100935.66;;;20.90;69.05
73267;BME280;61495;53.400;7.608;2022-09-13T08:27:31;100941.91;;;21.00;67.39
73267;BME280;61495;53.400;7.608;2022-09-13T08:29:57;100938.38;;;21.15;68.17
73267;BME280;61495;53.400;7.608;2022-09-13T08:32:22;100908.41;;;21.05;66.19
73267;BME280;61495;53.400;7.608;2022-09-13T08:34:47;100935.34;;;21.27;67.05
73267;BME280;61495;53.400;7.608;2022-09-13T08:37:13;100942.72;;;21.31;66.12
73267;BME280;61495;53.400;7.608;2022-09-13T08:39:39;100957.44;;;21.40;66.65
73267;BME280;61495;53.400;7.608;2022-09-13T08:42:41;100933.19;;;21.19;63.50
73267;BME280;61495;53.400;7.608;2022-09-13T08:45:10;100953.59;;;21.41;62.99
73267;BME280;61495;53.400;7.608;2022-09-13T08:47:58;100964.47;;;21.56;64.66
73267;BME280;61495;53.400;7.608;2022-09-13T08:50:29;100947.56;;;21.59;63.59
73267;BME280;61495;53.400;7.608;2022-09-13T08:55:45;100949.41;;;21.94;62.98
73267;BME280;61495;53.400;7.608;2022-09-13T09:06:32;100940.69;;;22.36;62.05
73267;BME280;61495;53.400;7.608;2022-09-13T09:09:33;100947.69;;;22.52;58.57
73267;BME280;61495;53.400;7.608;2022-09-13T09:12:26;100955.16;;;22.81;62.49
73267;BME280;61495;53.400;7.608;2022-09-13T09:15:03;100949.06;;;22.94;59.12
73267;BME280;61495;53.400;7.608;2022-09-13T09:17:45;100958.28;;;23.03;57.63
73267;BME280;61495;53.400;7.608;2022-09-13T09:20:23;100933.72;;;22.98;56.60
73267;BME280;61495;53.400;7.608;2022-09-13T09:22:50;100947.09;;;23.28;57.42
73267;BME280;61495;53.400;7.608;2022-09-13T09:25:18;100931.09;;;23.45;58.14
73267;BME280;61495;53.400;7.608;2022-09-13T09:27:44;100937.44;;;23.64;57.92
73267;BME280;61495;53.400;7.608;2022-09-13T09:30:13;100964.06;;;23.83;55.74
73267;BME280;61495;53.400;7.608;2022-09-13T09:40:43;100955.38;;;24.23;56.01
73267;BME280;61495;53.400;7.608;2022-09-13T09:43:22;100947.78;;;24.15;54.57
73267;BME280;61495;53.400;7.608;2022-09-13T09:45:51;100961.06;;;24.26;54.44
73267;BME280;61495;53.400;7.608;2022-09-13T09:48:21;100933.09;;;24.06;53.95
73267;BME280;61495;53.400;7.608;2022-09-13T09:50:50;100941.13;;;24.21;56.65
73267;BME280;61495;53.400;7.608;2022-09-13T09:53:31;100956.47;;;24.22;53.37
73267;BME280;61495;53.400;7.608;2022-09-13T09:56:02;100956.31;;;24.32;54.80
73267;BME280;61495;53.400;7.608;2022-09-13T09:58:51;100957.16;;;24.51;54.71
73267;BME280;61495;53.400;7.608;2022-09-13T10:01:36;100955.38;;;24.60;53.42
73267;BME280;61495;53.400;7.608;2022-09-13T10:04:07;100958.69;;;24.57;52.82
73267;BME280;61495;53.400;7.608;2022-09-13T10:06:42;100958.19;;;24.55;51.63
73267;BME280;61495;53.400;7.608;2022-09-13T10:14:35;100956.63;;;24.86;49.32
73267;BME280;61495;53.400;7.608;2022-09-13T10:19:37;100953.28;;;25.22;53.13
73267;BME280;61495;53.400;7.608;2022-09-13T10:22:04;100920.63;;;25.07;51.32
73267;BME280;61495;53.400;7.608;2022-09-13T10:24:33;100941.38;;;25.13;50.82
73267;BME280;61495;53.400;7.608;2022-09-13T10:26:58;100937.97;;;25.21;51.29
73267;BME280;61495;53.400;7.608;2022-09-13T10:29:26;100943.44;;;25.34;49.80
73267;BME280;61495;53.400;7.608;2022-09-13T10:31:53;100945.94;;;25.50;51.84
73267;BME280;61495;53.400;7.608;2022-09-13T10:34:41;100903.91;;;25.22;47.95
73267;BME280;61495;53.400;7.608;2022-09-13T10:37:21;100922.13;;;25.45;48.43
73267;BME280;61495;53.400;7.608;2022-09-13T10:39:58;100943.72;;;25.79;49.10
73267;BME280;61495;53.400;7.608;2022-09-13T10:42:26;100928.78;;;25.71;50.30
73267;BME280;61495;53.400;7.608;2022-09-13T10:44:55;100922.69;;;25.74;48.30
73267;BME280;61495;53.400;7.608;2022-09-13T10:47:25;100953.16;;;25.86;49.35
73267;BME280;61495;53.400;7.608;2022-09-13T10:49:54;100920.69;;;25.34;48.40
73267;BME280;61495;53.400;7.608;2022-09-13T10:52:34;100947.38;;;25.61;47.90
73267;BME280;61495;53.400;7.608;2022-09-13T10:58:15;100949.00;;;25.75;48.35
73267;BME280;61495;53.400;7.608;2022-09-13T11:25:27;100960.75;;;26.44;47.72
73267;BME280;61495;53.400;7.608;2022-09-13T11:28:24;100955.31;;;26.52;46.84
73267;BME280;61495;53.400;7.608;2022-09-13T11:31:25;100969.25;;;26.56;46.35
73267;BME280;61495;53.400;7.608;2022-09-13T11:37:03;100962.38;;;26.45;46.88
73267;BME280;61495;53.400;7.608;2022-09-13T11:39:44;100960.53;;;26.40;46.15
73267;BME280;61495;53.400;7.608;2022-09-13T11:45:17;100957.56;;;26.15;45.20
73267;BME280;61495;53.400;7.608;2022-09-13T11:47:57;100952.25;;;26.18;46.57
73267;BME280;61495;53.400;7.608;2022-09-13T11:51:00;100959.38;;;26.06;44.56
73267;BME280;61495;53.400;7.608;2022-09-13T11:56:28;100967.94;;;26.18;46.73
73267;BME280;61495;53.400;7.608;2022-09-13T12:01:44;100953.06;;;26.05;45.94
73267;BME280;61495;53.400;7.608;2022-09-13T12:04:22;100935.75;;;26.05;46.14
73267;BME280;61495;53.400;7.608;2022-09-13T12:06:54;100945.94;;;25.90;45.00
73267;BME280;61495;53.400;7.608;2022-09-13T12:09:27;100931.50;;;25.98;46.05
73267;BME280;61495;53.400;7.608;2022-09-13T12:12:06;100943.09;;;26.09;47.95
73267;BME280;61495;53.400;7.608;2022-09-13T12:15:12;100956.81;;;26.23;48.24
73267;BME280;61495;53.400;7.608;2022-09-13T12:17:42;100960.38;;;26.23;48.18
73267;BME280;61495;53.400;7.608;2022-09-13T12:22:44;100921.50;;;26.16;48.07
73267;BME280;61495;53.400;7.608;2022-09-13T12:25:23;100947.53;;;26.32;48.78
73267;BME280;61495;53.400;7.608;2022-09-13T12:28:07;100960.88;;;26.61;47.92
73267;BME280;61495;53.400;7.608;2022-09-13T12:30:46;100956.91;;;26.67;46.85
73267;BME280;61495;53.400;7.608;2022-09-13T12:33:16;100960.53;;;26.76;47.41
73267;BME280;61495;53.400;7.608;2022-09-13T12:35:57;100963.22;;;26.81;46.02
73267;BME280;61495;53.400;7.608;2022-09-13T12:44:53;100967.94;;;26.89;45.43
73267;BME280;61495;53.400;7.608;2022-09-13T12:50:21;100970.31;;;27.04;45.72
73267;BME280;61495;53.400;7.608;2022-09-13T12:55:35;100980.31;;;27.00;46.97
73267;BME280;61495;53.400;7.608;2022-09-13T13:01:22;100989.88;;;27.03;46.04
73267;BME280;61495;53.400;7.608;2022-09-13T13:03:50;100976.69;;;26.91;46.61
73267;BME280;61495;53.400;7.608;2022-09-13T13:06:34;100967.97;;;26.76;43.69
73267;BME280;61495;53.400;7.608;2022-09-13T13:09:27;100948.66;;;26.67;44.25
73267;BME280;61495;53.400;7.608;2022-09-13T13:11:56;100966.59;;;26.65;44.31
73267;BME280;61495;53.400;7.608;2022-09-13T13:17:43;100982.16;;;26.69;43.24
73267;BME280;61495;53.400;7.608;2022-09-13T13:23:29;100969.66;;;26.63;43.35
73267;BME280;61495;53.400;7.608;2022-09-13T13:36:43;100969.00;;;26.80;44.79
73267;BME280;61495;53.400;7.608;2022-09-13T13:46:45;100970.63;;;26.81;45.54
73267;BME280;61495;53.400;7.608;2022-09-13T14:00:19;100955.16;;;26.71;42.98
73267;BME280;61495;53.400;7.608;2022-09-13T14:11:13;100963.00;;;26.42;43.01
73267;BME280;61495;53.400;7.608;2022-09-13T14:19:19;100959.78;;;26.13;43.87
73267;BME280;61495;53.400;7.608;2022-09-13T14:24:29;100936.81;;;25.95;43.30
73267;BME280;61495;53.400;7.608;2022-09-13T14:26:58;100956.81;;;25.95;45.19
73267;BME280;61495;53.400;7.608;2022-09-13T14:29:24;100952.06;;;25.87;44.33
73267;BME280;61495;53.400;7.608;2022-09-13T14:31:54;100953.28;;;25.81;44.71
73267;BME280;61495;53.400;7.608;2022-09-13T14:34:26;100932.72;;;25.52;42.46
73267;BME280;61495;53.400;7.608;2022-09-13T14:36:58;100935.25;;;25.48;44.03
73267;BME280;61495;53.400;7.608;2022-09-13T14:39:24;100960.50;;;25.50;44.76
73267;BME280;61495;53.400;7.608;2022-09-13T14:42:02;100955.66;;;25.42;43.92
73267;BME280;61495;53.400;7.608;2022-09-13T14:44:35;100953.81;;;25.24;44.44
73267;BME280;61495;53.400;7.608;2022-09-13T14:47:05;100951.94;;;25.06;43.76
73267;BME280;61495;53.400;7.608;2022-09-13T14:49:35;100959.03;;;25.07;45.11
73267;BME280;61495;53.400;7.608;2022-09-13T14:52:18;100944.03;;;24.85;44.96
73267;BME280;61495;53.400;7.608;2022-09-13T14:54:49;100962.47;;;24.99;45.82
73267;BME280;61495;53.400;7.608;2022-09-13T14:57:26;100939.50;;;24.76;45.83
73267;BME280;61495;53.400;7.608;2022-09-13T14:59:56;100966.25;;;24.84;46.01
73267;BME280;61495;53.400;7.608;2022-09-13T15:02:25;100951.34;;;24.71;45.48
73267;BME280;61495;53.400;7.608;2022-09-13T15:04:56;100950.84;;;24.51;44.82
73267;BME280;61495;53.400;7.608;2022-09-13T15:07:35;100949.44;;;24.53;45.02
73267;BME280;61495;53.400;7.608;2022-09-13T15:13:15;100947.47;;;24.40;45.74
73267;BME280;61495;53.400;7.608;2022-09-13T15:15:41;100908.63;;;24.14;46.50
73267;BME280;61495;53.400;7.608;2022-09-13T15:21:00;100934.03;;;24.39;46.09
73267;BME280;61495;53.400;7.608;2022-09-13T15:26:21;100945.34;;;24.32;44.25
73267;BME280;61495;53.400;7.608;2022-09-13T15:28:49;100947.50;;;24.35;46.33
73267;BME280;61495;53.400;7.608;2022-09-13T15:31:25;100940.78;;;24.27;46.36
73267;BME280;61495;53.400;7.608;2022-09-13T15:31:31;100940.78;;;24.27;46.36
73267;BME280;61495;53.400;7.608;2022-09-13T15:39:48;100952.56;;;24.28;46.79
73267;BME280;61495;53.400;7.608;2022-09-13T15:42:15;100941.03;;;24.07;46.65
73267;BME280;61495;53.400;7.608;2022-09-13T15:44:42;100954.41;;;24.09;47.41
73267;BME280;61495;53.400;7.608;2022-09-13T15:47:15;100960.78;;;24.04;46.64
73267;BME280;61495;53.400;7.608;2022-09-13T15:49:47;100951.53;;;23.76;45.58
73267;BME280;61495;53.400;7.608;2022-09-13T15:52:14;100969.59;;;23.77;46.95
73267;BME280;61495;53.400;7.608;2022-09-13T15:54:42;100951.19;;;23.59;47.57
73267;BME280;61495;53.400;7.608;2022-09-13T15:57:14;100957.19;;;23.61;48.36
73267;BME280;61495;53.400;7.608;2022-09-13T15:59:41;100956.31;;;23.42;48.52
73267;BME280;61495;53.400;7.608;2022-09-13T16:02:26;100957.19;;;23.33;48.67
73267;BME280;61495;53.400;7.608;2022-09-13T16:04:54;100961.00;;;23.32;48.97
73267;BME280;61495;53.400;7.608;2022-09-13T16:07:21;100945.63;;;23.12;49.09
73267;BME280;61495;53.400;7.608;2022-09-13T16:09:48;100960.97;;;23.08;49.74
73267;BME280;61495;53.400;7.608;2022-09-13T16:12:15;100958.84;;;23.00;49.73
73267;BME280;61495;53.400;7.608;2022-09-13T16:14:48;100931.72;;;22.75;50.18
73267;BME280;61495;53.400;7.608;2022-09-13T16:17:21;100945.72;;;22.68;50.07
73267;BME280;61495;53.400;7.608;2022-09-13T16:19:47;100946.25;;;22.60;50.36
73267;BME280;61495;53.400;7.608;2022-09-13T16:22:13;100943.31;;;22.51;50.59